CheckWX is a tool to help pilots better visualize weather data.  It is not intended as a substitute for an official pre-flight weather briefing.

01:26:52 UTC

KGMJ METAR
Grove Municipal Airport
Grove, Oklahoma, USA
Current

32 mins ago

KGMJ 240055Z AUTO 27015G32KT 10SM SCT080 11/03 A2968 RMK AO2
Observed
Feb-24 @ 00:55 UTC
Wind
  • 270° at 15 KTS
  • Gusting to 32 KTS
Visibility
10 SM
Flight Rules
VFR
Cloud Levels
  • Scattered at 8,000' AGL
Temperature
11°C / 52°F
Dewpoint
C / 37°F
Humidity
58%
Altimeter
29.68" Hg
Pressure
1005.12 hPa
Previous

52 mins ago

KGMJ 240035Z AUTO 22011G22KT 10SM BKN085 15/M01 A2962 RMK AO2
Observed
Feb-24 @ 00:35 UTC
Wind
  • 220° at 11 KTS
  • Gusting to 22 KTS
Visibility
10 SM
Flight Rules
VFR
Cloud Levels
  • Broken at 8,500' AGL
Temperature
15°C / 59°F
Dewpoint
-1°C / 30°F
Humidity
34%
Altimeter
29.62" Hg
Pressure
1003.02 hPa
Previous

1 hour ago

KGMJ 240015Z AUTO 22019G26KT 10SM BKN085 15/M01 A2961 RMK AO2
Observed
Feb-24 @ 00:15 UTC
Wind
  • 220° at 19 KTS
  • Gusting to 26 KTS
Visibility
10 SM
Flight Rules
VFR
Cloud Levels
  • Broken at 8,500' AGL
Temperature
15°C / 59°F
Dewpoint
-1°C / 30°F
Humidity
34%
Altimeter
29.61" Hg
Pressure
1002.72 hPa